createdAt,value
2023-04-09T00:01:24.705Z,64.70
2023-04-09T00:04:26.615Z,64.97
2023-04-09T00:07:28.531Z,64.91
2023-04-09T00:10:30.585Z,64.93
2023-04-09T00:13:39.345Z,65.19
2023-04-09T00:16:41.706Z,65.28
2023-04-09T00:19:43.688Z,65.37
2023-04-09T00:22:45.571Z,65.45
2023-04-09T00:25:47.419Z,65.62
2023-04-09T00:28:49.661Z,65.53
2023-04-09T00:31:51.956Z,65.68
2023-04-09T00:34:53.799Z,65.72
2023-04-09T00:37:55.690Z,66.08
2023-04-09T00:40:57.641Z,65.95
2023-04-09T00:43:59.492Z,66.44
2023-04-09T00:47:01.462Z,66.40
2023-04-09T00:50:03.820Z,66.51
2023-04-09T00:53:06.305Z,66.67
2023-04-09T00:56:08.238Z,66.68
2023-04-09T00:59:10.396Z,66.87
2023-04-09T01:02:12.720Z,67.22
2023-04-09T01:05:15.773Z,67.25
2023-04-09T01:08:49.144Z,67.64
2023-04-09T01:12:07.627Z,67.84
2023-04-09T01:15:13.892Z,67.66
2023-04-09T01:18:31.191Z,68.08
2023-04-09T01:21:34.417Z,68.21
2023-04-09T01:24:42.772Z,68.15
2023-04-09T01:28:06.149Z,68.33
2023-04-09T01:31:13.587Z,68.34
2023-04-09T01:34:16.938Z,68.41
2023-04-09T01:37:20.623Z,68.52
2023-04-09T01:40:22.939Z,68.65
2023-04-09T01:43:27.534Z,68.77
2023-04-09T01:46:30.616Z,68.50
2023-04-09T01:49:33.303Z,68.65
2023-04-09T01:52:35.465Z,68.84
2023-04-09T01:55:37.421Z,68.87
2023-04-09T01:58:39.298Z,68.79
2023-04-09T02:01:48.316Z,69.01
2023-04-09T02:04:54.383Z,68.74
2023-04-09T02:07:59.916Z,68.96
2023-04-09T02:11:05.040Z,68.94
2023-04-09T02:14:09.032Z,68.86
2023-04-09T02:17:11.631Z,68.94
2023-04-09T02:20:18.773Z,69.27
2023-04-09T02:23:21.668Z,69.26
2023-04-09T02:26:24.351Z,69.29
2023-04-09T02:29:26.212Z,69.41
2023-04-09T02:32:28.217Z,69.53
2023-04-09T02:35:30.356Z,69.83
2023-04-09T02:38:32.762Z,70.09
2023-04-09T02:41:34.565Z,70.23
2023-04-09T02:44:36.569Z,70.58
2023-04-09T02:47:38.958Z,70.72
2023-04-09T02:50:41.418Z,70.91
2023-04-09T02:53:43.396Z,70.92
2023-04-09T02:56:45.344Z,71.34
2023-04-09T02:59:47.379Z,71.48
2023-04-09T03:02:50.924Z,71.55
2023-04-09T03:05:53.098Z,71.73
2023-04-09T03:08:54.997Z,71.94
2023-04-09T03:11:58.600Z,72.14
2023-04-09T03:15:00.484Z,72.19
2023-04-09T03:18:02.490Z,72.29
2023-04-09T03:21:08.700Z,72.52
2023-04-09T03:24:13.563Z,72.35
2023-04-09T03:27:16.480Z,72.75
2023-04-09T03:30:18.600Z,73.12
2023-04-09T03:33:20.790Z,72.70
2023-04-09T03:36:28.246Z,72.94
2023-04-09T03:39:37.967Z,72.93
2023-04-09T03:42:39.884Z,73.17
2023-04-09T03:45:43.343Z,72.74
2023-04-09T03:49:00.784Z,72.91
2023-04-09T03:52:11.510Z,73.01
2023-04-09T03:55:17.418Z,73.09
2023-04-09T03:58:19.763Z,72.80
2023-04-09T04:01:22.622Z,72.94
2023-04-09T04:04:32.194Z,72.57
2023-04-09T04:07:34.095Z,72.50
2023-04-09T04:10:42.034Z,72.49
2023-04-09T04:13:45.602Z,72.28
2023-04-09T04:16:47.545Z,71.98
2023-04-09T04:19:53.551Z,71.93
2023-04-09T04:22:57.835Z,71.81
2023-04-09T04:26:01.546Z,71.56
2023-04-09T04:29:08.873Z,71.38
2023-04-09T04:32:29.986Z,70.85
2023-04-09T04:35:36.095Z,70.74
2023-04-09T04:38:41.800Z,70.75
2023-04-09T04:41:50.717Z,70.74
2023-04-09T04:44:58.885Z,70.37
2023-04-09T04:48:11.015Z,70.24
2023-04-09T04:51:12.939Z,70.03
2023-04-09T04:54:20.769Z,69.62
2023-04-09T04:57:26.800Z,69.42
2023-04-09T05:00:29.793Z,69.26
2023-04-09T05:03:36.148Z,68.94
2023-04-09T05:06:58.031Z,68.64
2023-04-09T05:10:00.890Z,68.81
2023-04-09T05:13:09.379Z,68.88
2023-04-09T05:16:20.104Z,68.80
2023-04-09T05:19:28.562Z,69.04
2023-04-09T05:22:36.984Z,69.05
2023-04-09T05:25:40.036Z,69.02
2023-04-09T05:28:47.608Z,69.04
2023-04-09T05:31:53.581Z,69.09
2023-04-09T05:35:05.154Z,69.08
2023-04-09T05:38:13.672Z,69.06
2023-04-09T05:41:17.999Z,68.85
2023-04-09T05:44:30.636Z,69.12
2023-04-09T05:47:47.282Z,68.95
2023-04-09T05:50:55.451Z,68.81
2023-04-09T05:54:01.336Z,68.37
2023-04-09T05:57:08.194Z,67.97
2023-04-09T06:00:13.593Z,67.90
2023-04-09T06:03:18.765Z,67.97
2023-04-09T06:06:20.956Z,67.83
2023-04-09T06:09:22.871Z,67.24
2023-04-09T06:12:24.758Z,67.33
2023-04-09T06:15:26.848Z,66.85
2023-04-09T06:18:29.650Z,66.29
2023-04-09T06:21:31.497Z,66.02
2023-04-09T06:24:33.423Z,65.73
2023-04-09T06:27:35.582Z,65.63
2023-04-09T06:30:37.496Z,65.28
2023-04-09T06:33:39.400Z,64.78
2023-04-09T06:36:41.425Z,64.65
2023-04-09T06:39:47.716Z,64.00
2023-04-09T06:42:59.930Z,63.49
2023-04-09T06:46:05.735Z,63.33
2023-04-09T06:49:07.631Z,63.41
2023-04-09T06:52:09.589Z,62.52
2023-04-09T06:55:11.654Z,61.96
2023-04-09T06:58:13.547Z,62.31
2023-04-09T07:01:17.442Z,62.22
2023-04-09T07:04:19.478Z,61.41
2023-04-09T07:07:24.267Z,61.81
2023-04-09T07:10:27.321Z,62.31
2023-04-09T07:13:29.707Z,62.39
2023-04-09T07:16:31.800Z,62.23
2023-04-09T07:19:33.764Z,61.99
2023-04-09T07:22:36.462Z,61.68
2023-04-09T07:25:38.307Z,61.71
2023-04-09T07:28:40.622Z,62.34
2023-04-09T07:31:42.626Z,62.97
2023-04-09T07:34:45.545Z,63.04
2023-04-09T07:37:47.407Z,63.08
2023-04-09T07:40:49.410Z,62.89
2023-04-09T07:43:51.672Z,62.73
2023-04-09T07:46:53.540Z,62.95
2023-04-09T07:49:55.499Z,62.36
2023-04-09T07:52:57.457Z,62.48
2023-04-09T07:55:59.304Z,61.77
2023-04-09T07:59:01.157Z,61.25
2023-04-09T08:02:03.304Z,61.69
2023-04-09T08:05:05.934Z,61.67
2023-04-09T08:08:07.906Z,61.30
2023-04-09T08:11:09.780Z,61.31
2023-04-09T08:14:16.315Z,60.96
2023-04-09T08:17:18.225Z,61.21
2023-04-09T08:20:20.204Z,60.85
2023-04-09T08:23:22.125Z,60.90
2023-04-09T08:26:24.045Z,60.71
2023-04-09T08:29:27.040Z,60.92
2023-04-09T08:32:29.355Z,60.91
2023-04-09T08:35:31.668Z,61.02
2023-04-09T08:38:33.468Z,60.56
2023-04-09T08:41:41.157Z,60.52
2023-04-09T08:44:43.850Z,60.94
2023-04-09T08:47:48.053Z,60.92
2023-04-09T08:50:50.499Z,61.02
2023-04-09T08:53:55.447Z,60.88
2023-04-09T08:56:57.652Z,60.58
2023-04-09T08:59:59.523Z,60.27
2023-04-09T09:03:09.483Z,59.99
2023-04-09T09:06:22.593Z,58.59
2023-04-09T09:09:26.836Z,58.55
2023-04-09T09:12:36.221Z,58.20
2023-04-09T09:15:38.120Z,57.90
2023-04-09T09:18:41.755Z,57.45
2023-04-09T09:21:43.784Z,56.80
2023-04-09T09:24:50.290Z,56.90
2023-04-09T09:27:53.489Z,56.23
2023-04-09T09:30:55.487Z,55.61
2023-04-09T09:33:57.506Z,54.42
2023-04-09T09:36:59.464Z,52.68
2023-04-09T09:40:01.627Z,51.92
2023-04-09T09:43:03.689Z,51.80
2023-04-09T09:46:06.280Z,51.99
2023-04-09T09:49:09.584Z,50.88
2023-04-09T09:52:11.670Z,50.23
2023-04-09T09:55:18.113Z,50.83
2023-04-09T09:58:27.919Z,52.11
2023-04-09T10:01:30.365Z,52.11
2023-04-09T10:04:38.311Z,51.90
2023-04-09T10:07:41.627Z,51.00
2023-04-09T10:10:44.024Z,49.64
2023-04-09T10:13:59.471Z,50.10
2023-04-09T10:17:04.122Z,48.77
2023-04-09T10:20:23.063Z,48.79
2023-04-09T10:23:34.128Z,48.00
2023-04-09T10:26:40.328Z,48.40
2023-04-09T10:29:47.436Z,49.07
2023-04-09T10:32:49.375Z,49.58
2023-04-09T10:35:51.825Z,49.93
2023-04-09T10:38:53.968Z,50.00
2023-04-09T10:41:59.682Z,50.37
2023-04-09T10:45:15.491Z,50.60
2023-04-09T10:48:19.554Z,49.85
2023-04-09T10:51:21.482Z,49.87
2023-04-09T10:54:35.494Z,50.10
2023-04-09T10:57:37.635Z,49.51
2023-04-09T11:00:44.248Z,49.08
2023-04-09T11:04:08.962Z,49.28
2023-04-09T11:07:15.950Z,49.39
2023-04-09T11:10:18.798Z,48.65
2023-04-09T11:13:22.032Z,48.71
2023-04-09T11:16:26.584Z,48.04
2023-04-09T11:19:30.127Z,48.23
2023-04-09T11:22:31.987Z,48.61
2023-04-09T11:25:35.315Z,48.64
2023-04-09T11:28:37.298Z,49.27
2023-04-09T11:31:39.314Z,49.45
2023-04-09T11:34:41.142Z,49.16
2023-04-09T11:37:44.357Z,49.21
2023-04-09T11:40:49.408Z,49.24
2023-04-09T11:43:52.226Z,48.66
2023-04-09T11:46:54.631Z,48.78
2023-04-09T11:49:56.730Z,48.12
2023-04-09T11:52:58.933Z,48.07
2023-04-09T11:56:01.704Z,47.80
2023-04-09T12:03:05.490Z,47.21
2023-04-09T12:06:09.393Z,47.79
2023-04-09T12:09:13.745Z,48.33
2023-04-09T12:12:20.507Z,48.60
2023-04-09T12:15:22.425Z,48.18
2023-04-09T12:18:24.873Z,48.45
2023-04-09T12:21:27.578Z,48.25
2023-04-09T12:24:29.469Z,48.99
2023-04-09T12:27:33.478Z,49.15
2023-04-09T12:30:36.324Z,49.10
2023-04-09T12:33:40.494Z,49.26
2023-04-09T12:36:42.594Z,48.59
2023-04-09T12:39:44.602Z,48.61
2023-04-09T12:42:47.471Z,48.71
2023-04-09T12:45:49.469Z,47.96
2023-04-09T12:48:51.562Z,47.92
2023-04-09T12:51:53.402Z,46.93
2023-04-09T12:54:55.632Z,46.31
2023-04-09T12:57:58.364Z,44.78
2023-04-09T13:01:01.021Z,44.24
2023-04-09T13:04:03.162Z,43.50
2023-04-09T13:07:05.146Z,43.37
2023-04-09T13:10:07.481Z,43.47
2023-04-09T13:13:12.205Z,43.52
2023-04-09T13:16:14.081Z,43.33
2023-04-09T13:19:15.967Z,43.27
2023-04-09T13:22:18.876Z,43.19
2023-04-09T13:25:20.963Z,43.40
2023-04-09T13:28:22.856Z,43.71
2023-04-09T13:31:25.270Z,43.50
2023-04-09T13:34:27.256Z,43.76
2023-04-09T13:37:29.139Z,43.70
2023-04-09T13:40:31.213Z,43.23
2023-04-09T13:43:33.103Z,43.65
2023-04-09T13:46:35.024Z,43.70
2023-04-09T13:49:36.953Z,42.92
2023-04-09T13:52:38.786Z,43.09
2023-04-09T13:55:40.851Z,42.47
2023-04-09T13:58:43.814Z,42.53
2023-04-09T14:01:45.882Z,42.31
2023-04-09T14:04:47.897Z,42.00
2023-04-09T14:07:49.869Z,42.07
2023-04-09T14:10:51.723Z,42.05
2023-04-09T14:13:53.824Z,42.24
2023-04-09T14:16:56.015Z,42.43
2023-04-09T14:19:59.175Z,42.67
2023-04-09T14:23:01.277Z,42.36
2023-04-09T14:26:04.370Z,42.63
2023-04-09T14:29:06.200Z,42.34
2023-04-09T14:32:08.266Z,42.99
2023-04-09T14:35:10.489Z,43.33
2023-04-09T14:38:12.949Z,43.30
2023-04-09T14:41:14.924Z,43.27
2023-04-09T14:44:16.801Z,43.49
2023-04-09T14:47:18.641Z,43.77
2023-04-09T14:50:21.252Z,43.33
2023-04-09T14:53:23.549Z,43.44
2023-04-09T14:56:25.559Z,43.26
2023-04-09T14:59:27.628Z,43.96
2023-04-09T15:02:29.648Z,44.07
2023-04-09T15:05:31.689Z,43.55
2023-04-09T15:08:33.704Z,43.23
2023-04-09T15:11:35.668Z,43.10
2023-04-09T15:14:37.589Z,43.19
2023-04-09T15:17:39.763Z,45.91
2023-04-09T15:20:43.487Z,51.33
2023-04-09T15:23:46.244Z,54.44
2023-04-09T15:26:48.071Z,57.04
2023-04-09T15:29:50.032Z,57.22
2023-04-09T15:32:52.819Z,58.58
2023-04-09T15:35:54.823Z,59.36
2023-04-09T15:38:56.659Z,60.36
2023-04-09T15:41:58.677Z,60.59
2023-04-09T15:45:00.677Z,61.49
2023-04-09T15:48:02.613Z,61.21
2023-04-09T15:51:08.063Z,61.27
2023-04-09T15:54:09.876Z,61.28
2023-04-09T15:57:11.847Z,61.65
2023-04-09T16:00:14.124Z,61.93
2023-04-09T16:03:16.320Z,61.91
2023-04-09T16:06:19.809Z,61.97
2023-04-09T16:09:21.777Z,61.99
2023-04-09T16:12:24.896Z,62.36
2023-04-09T16:15:27.212Z,63.20
2023-04-09T16:18:29.304Z,63.09
2023-04-09T16:21:31.252Z,63.29
2023-04-09T16:24:33.250Z,63.72
2023-04-09T16:27:35.327Z,63.56
2023-04-09T16:30:37.746Z,63.44
2023-04-09T16:33:39.746Z,63.91
2023-04-09T16:36:41.780Z,63.67
2023-04-09T16:39:43.618Z,63.74
2023-04-09T16:42:45.458Z,63.92
2023-04-09T16:45:47.395Z,63.99
2023-04-09T16:48:49.199Z,64.50
2023-04-09T16:51:53.220Z,64.61
2023-04-09T16:54:55.641Z,64.35
2023-04-09T16:57:57.446Z,64.37
2023-04-09T17:00:59.405Z,64.47
2023-04-09T17:04:03.195Z,64.48
2023-04-09T17:07:05.214Z,64.38
2023-04-09T17:10:07.802Z,64.30
2023-04-09T17:13:09.920Z,64.06
2023-04-09T17:16:11.992Z,64.22
2023-04-09T17:19:13.981Z,63.89
2023-04-09T17:22:17.903Z,63.44
2023-04-09T17:25:20.710Z,64.64
2023-04-09T17:28:22.691Z,64.75
2023-04-09T17:31:24.668Z,64.68
2023-04-09T17:34:26.664Z,64.64
2023-04-09T17:37:29.262Z,64.77
2023-04-09T17:40:32.047Z,65.50
2023-04-09T17:43:33.817Z,66.47
2023-04-09T17:46:36.684Z,66.30
2023-04-09T17:49:39.355Z,66.49
2023-04-09T17:52:41.248Z,66.97
2023-04-09T17:55:50.983Z,67.32
2023-04-09T17:58:53.608Z,67.46
2023-04-09T18:01:56.745Z,67.92
2023-04-09T18:05:02.811Z,67.65
2023-04-09T18:08:05.218Z,67.46
2023-04-09T18:11:11.850Z,67.80
2023-04-09T18:14:16.182Z,68.22
2023-04-09T18:17:18.057Z,68.89
2023-04-09T18:20:20.077Z,68.88
2023-04-09T18:23:22.030Z,69.06
2023-04-09T18:26:24.063Z,69.08
2023-04-09T18:29:27.591Z,68.91
2023-04-09T18:32:29.861Z,69.12
2023-04-09T18:35:31.860Z,70.12
2023-04-09T18:38:34.741Z,69.98
2023-04-09T18:41:36.614Z,70.18
2023-04-09T18:44:38.798Z,70.77
2023-04-09T18:47:40.958Z,70.78
2023-04-09T18:50:42.866Z,70.55
2023-04-09T18:53:48.153Z,70.92
2023-04-09T18:56:50.053Z,70.88
2023-04-09T18:59:51.957Z,70.75
2023-04-09T19:02:54.252Z,71.17
2023-04-09T19:05:56.447Z,70.98
2023-04-09T19:08:59.103Z,71.23
2023-04-09T19:12:02.069Z,71.44
2023-04-09T19:15:04.946Z,71.72
2023-04-09T19:18:06.925Z,73.07
2023-04-09T19:21:09.136Z,72.56
2023-04-09T19:24:11.419Z,72.92
2023-04-09T19:27:14.159Z,73.48
2023-04-09T19:30:16.199Z,73.61
2023-04-09T19:33:22.209Z,73.53
2023-04-09T19:36:24.303Z,73.34
2023-04-09T19:39:26.215Z,73.60
2023-04-09T19:42:28.878Z,73.53
2023-04-09T19:45:31.732Z,73.88
2023-04-09T19:48:35.520Z,74.10
2023-04-09T19:51:37.513Z,74.79
2023-04-09T19:54:39.409Z,74.87
2023-04-09T19:57:43.658Z,75.18
2023-04-09T20:00:45.704Z,75.38
2023-04-09T20:03:48.219Z,75.04
2023-04-09T20:06:51.772Z,75.27
2023-04-09T20:09:53.654Z,75.43
2023-04-09T20:12:55.688Z,75.80
2023-04-09T20:15:57.849Z,76.42
2023-04-09T20:18:59.717Z,76.73
2023-04-09T20:22:02.247Z,76.14
2023-04-09T20:25:04.306Z,75.89
2023-04-09T20:28:06.507Z,74.65
2023-04-09T20:31:08.404Z,76.15
2023-04-09T20:34:10.560Z,76.32
2023-04-09T20:37:12.523Z,76.98
2023-04-09T20:40:14.475Z,76.95
2023-04-09T20:43:16.724Z,76.80
2023-04-09T20:46:18.728Z,76.37
2023-04-09T20:49:20.767Z,76.88
2023-04-09T20:52:23.543Z,76.94
2023-04-09T20:55:26.580Z,76.26
2023-04-09T20:58:28.578Z,77.36
2023-04-09T21:01:30.684Z,78.14
2023-04-09T21:04:32.645Z,78.29
2023-04-09T21:07:34.579Z,78.50
2023-04-09T21:10:36.533Z,77.83
2023-04-09T21:13:53.053Z,77.97
2023-04-09T21:16:56.809Z,77.90
2023-04-09T21:19:58.796Z,78.26
2023-04-09T21:23:00.798Z,77.71
2023-04-09T21:26:04.789Z,77.05
2023-04-09T21:29:06.627Z,76.66
2023-04-09T21:32:08.575Z,76.18
2023-04-09T21:35:10.538Z,75.83
2023-04-09T21:38:12.467Z,75.53
2023-04-09T21:41:14.301Z,75.36
2023-04-09T21:44:16.203Z,75.16
2023-04-09T21:47:18.182Z,74.68
2023-04-09T21:50:20.142Z,74.56
2023-04-09T21:53:22.034Z,74.24
2023-04-09T21:56:23.931Z,74.44
2023-04-09T21:59:25.834Z,74.34
2023-04-09T22:02:28.414Z,74.13
2023-04-09T22:05:31.973Z,73.72
2023-04-09T22:08:35.366Z,73.77
2023-04-09T22:11:41.587Z,73.49
2023-04-09T22:14:43.459Z,73.92
2023-04-09T22:17:45.679Z,73.63
2023-04-09T22:20:47.658Z,73.53
2023-04-09T22:23:50.637Z,73.80
2023-04-09T22:26:53.557Z,73.13
2023-04-09T22:29:55.400Z,72.53
2023-04-09T22:32:57.316Z,71.83
2023-04-09T22:35:59.636Z,71.28
2023-04-09T22:39:01.659Z,71.15
2023-04-09T22:42:03.868Z,70.56
2023-04-09T22:45:06.216Z,70.49
2023-04-09T22:48:08.506Z,70.22
2023-04-09T22:51:10.378Z,70.20
2023-04-09T22:54:12.334Z,69.66
2023-04-09T22:57:14.274Z,69.06
2023-04-09T23:00:16.426Z,68.64
2023-04-09T23:03:18.473Z,68.43
2023-04-09T23:06:20.815Z,68.24
2023-04-09T23:09:22.828Z,67.81
2023-04-09T23:12:24.722Z,67.70
2023-04-09T23:15:27.182Z,67.35
2023-04-09T23:18:29.082Z,67.24
2023-04-09T23:21:31.810Z,67.03
2023-04-09T23:24:33.664Z,67.16
2023-04-09T23:27:35.598Z,66.60
2023-04-09T23:30:37.425Z,66.45
2023-04-09T23:33:39.302Z,66.50
2023-04-09T23:36:41.253Z,66.78
2023-04-09T23:39:43.634Z,66.88
2023-04-09T23:42:47.956Z,67.22
2023-04-09T23:45:50.672Z,67.19
2023-04-09T23:48:52.668Z,66.82
2023-04-09T23:51:54.618Z,67.16
2023-04-09T23:54:56.484Z,67.02
2023-04-09T23:57:58.333Z,66.74
